Time;durP1;ratioP1;P1;durP2;ratioP2;P2;SDS_P1;SDS_P2;PMS_P1;PMS_P2;Temp;Humidity;BMP_temperature;BMP_pressure;BME280_temperature;BME280_humidity;BME280_pressure;Samples;Min_cycle;Max_cycle;Signal;HPM_P1;HPM_P2
2023/02/07 00:01:42;;;;;;;2.10;2.00;;;;;;;-5.78;70.23;101928.94;5095004;28;20055;-65
2023/02/07 00:04:13;;;;;;;2.28;2.10;;;;;;;-5.80;70.13;101918.81;5094860;28;20075;-65
2023/02/07 00:06:41;;;;;;;0.80;0.80;;;;;;;-5.86;70.20;101932.28;5095106;28;20040;-67
2023/02/07 00:09:12;;;;;;;1.97;1.83;;;;;;;-5.90;70.22;101931.09;5095265;28;20091;-67
2023/02/07 00:11:41;;;;;;;2.90;2.70;;;;;;;-5.84;70.51;101930.84;5094875;28;20131;-66
2023/02/07 00:14:11;;;;;;;2.50;2.20;;;;;;;-5.91;70.64;101924.38;5094782;28;20060;-67
2023/02/07 00:16:41;;;;;;;2.38;2.25;;;;;;;-5.87;70.60;101923.06;5094874;28;20218;-67
2023/02/07 00:19:09;;;;;;;;;;;;;;;-5.84;70.63;101916.78;5095105;28;20086;-67
2023/02/07 00:21:39;;;;;;;0.70;0.70;;;;;;;-5.88;70.73;101914.75;5094741;28;19920;-66
2023/02/07 00:24:09;;;;;;;0.60;0.60;;;;;;;-5.85;70.74;101924.97;5094940;28;20071;-66
2023/02/07 00:26:38;;;;;;;2.97;2.65;;;;;;;-5.90;70.72;101923.63;5094448;28;20048;-66
2023/02/07 00:29:07;;;;;;;3.17;2.95;;;;;;;-5.94;70.79;101914.13;5094796;28;20540;-66
2023/02/07 00:31:36;;;;;;;2.80;2.60;;;;;;;-5.92;70.77;101910.19;5093299;28;20040;-66
2023/02/07 00:34:07;;;;;;;5.07;3.05;;;;;;;-6.05;70.90;101899.75;5094466;28;20396;-66
2023/02/07 00:36:39;;;;;;;6.88;5.55;;;;;;;-6.03;70.85;101908.25;5094588;28;20066;-66
2023/02/07 00:39:13;;;;;;;2.00;1.90;;;;;;;-6.06;70.93;101910.41;5094349;28;20048;-66
2023/02/07 00:41:42;;;;;;;8.02;4.85;;;;;;;-6.05;70.76;101909.69;5094394;28;20055;-67
2023/02/07 00:44:11;;;;;;;;;;;;;;;-6.01;71.11;101914.25;5094346;28;20492;-66
2023/02/07 00:46:40;;;;;;;7.78;2.35;;;;;;;-6.06;71.00;101912.91;5092871;28;20014;-66
2023/02/07 00:49:10;;;;;;;2.40;1.98;;;;;;;-6.13;71.07;101920.47;5094480;28;20500;-66
2023/02/07 00:51:41;;;;;;;3.85;2.92;;;;;;;-6.10;70.93;101919.91;5093195;28;20040;-66
2023/02/07 00:54:10;;;;;;;2.63;2.45;;;;;;;-6.11;70.86;101919.00;5094488;28;20109;-66
2023/02/07 00:56:40;;;;;;;5.72;5.22;;;;;;;-6.16;70.81;101906.13;5094073;28;20434;-66
2023/02/07 00:59:08;;;;;;;2.25;2.10;;;;;;;-6.17;71.14;101901.00;5094013;28;20047;-66
2023/02/07 01:01:37;;;;;;;2.00;1.90;;;;;;;-6.18;71.09;101891.78;5093973;28;20109;-66
2023/02/07 01:04:07;;;;;;;2.75;2.55;;;;;;;-6.18;71.20;101881.84;5094110;28;20052;-66
2023/02/07 01:06:35;;;;;;;3.30;2.70;;;;;;;-6.19;71.06;101857.75;5092586;28;20036;-66
2023/02/07 01:09:07;;;;;;;3.58;3.33;;;;;;;-6.27;71.06;101852.03;5094178;28;20044;-66
2023/02/07 01:11:35;;;;;;;1.48;1.38;;;;;;;-6.27;71.32;101842.09;5093168;28;20130;-66
2023/02/07 01:14:04;;;;;;;1.55;1.45;;;;;;;-6.23;71.10;101844.13;5093822;28;20052;-66
2023/02/07 01:16:36;;;;;;;2.53;2.35;;;;;;;-6.28;71.04;101854.31;5093740;28;20505;-66
2023/02/07 01:19:06;;;;;;;1.75;1.65;;;;;;;-6.34;71.11;101853.72;5092643;28;20044;-66
2023/02/07 01:21:36;;;;;;;1.05;0.95;;;;;;;-6.31;71.31;101849.06;5094020;28;20165;-66
2023/02/07 01:24:08;;;;;;;2.38;2.22;;;;;;;-6.33;70.91;101855.47;5093678;28;20044;-66
2023/02/07 01:26:38;;;;;;;0.43;0.43;;;;;;;-6.36;71.07;101851.06;5093605;28;20067;-66
2023/02/07 01:29:10;;;;;;;0.60;0.60;;;;;;;-6.40;71.04;101855.56;5092527;28;20448;-66
2023/02/07 01:31:42;;;;;;;1.20;1.15;;;;;;;-6.39;71.23;101869.78;5093635;28;20073;-66
2023/02/07 01:34:13;;;;;;;0.93;0.93;;;;;;;-6.39;71.05;101870.66;5092721;28;20048;-66
2023/02/07 01:36:42;;;;;;;1.30;1.23;;;;;;;-6.38;71.22;101876.50;5093258;28;20483;-66
2023/02/07 01:39:14;;;;;;;1.30;1.20;;;;;;;-6.38;70.95;101862.47;5092586;28;20375;-66
2023/02/07 01:41:43;;;;;;;1.05;1.02;;;;;;;-6.43;70.88;101857.78;5092905;28;20371;-66
2023/02/07 01:44:37;;;;;;;1.95;1.85;;;;;;;-6.49;70.83;101862.09;5093821;28;20073;-66
2023/02/07 01:47:06;;;;;;;3.70;2.80;;;;;;;-6.51;70.91;101863.56;5093519;28;20067;-66
2023/02/07 01:49:36;;;;;;;7.40;4.68;;;;;;;-6.49;71.02;101857.16;5093420;28;20072;-66
2023/02/07 01:52:10;;;;;;;2.75;2.38;;;;;;;-6.54;70.96;101858.28;5093416;28;20123;-66
2023/02/07 01:54:41;;;;;;;2.10;2.00;;;;;;;-6.54;70.81;101863.25;5093452;28;20509;-67
2023/02/07 01:57:14;;;;;;;12.93;4.93;;;;;;;-6.53;70.57;101857.56;5093428;28;20476;-66
2023/02/07 01:59:44;;;;;;;1.63;1.52;;;;;;;-6.54;70.79;101838.41;5092470;28;20068;-66
2023/02/07 02:02:15;;;;;;;;;;;;;;;-6.59;70.95;101839.56;5092867;28;20542;-66
2023/02/07 02:04:48;;;;;;;1.17;1.17;;;;;;;-6.64;70.81;101850.63;5092070;28;19927;-67
2023/02/07 02:07:17;;;;;;;5.50;4.47;;;;;;;-6.62;70.71;101864.09;5093855;28;20127;-66
2023/02/07 02:09:47;;;;;;;1.38;1.13;;;;;;;-6.63;70.96;101843.34;5093327;28;20086;-66
2023/02/07 02:12:42;;;;;;;18.45;4.18;;;;;;;-6.56;70.86;101849.81;5093589;28;20047;-70
2023/02/07 02:15:24;;;;;;;1.42;1.38;;;;;;;-6.60;70.83;101837.81;5087506;28;20078;-66
2023/02/07 02:18:17;;;;;;;0.55;0.55;;;;;;;-6.77;70.99;101828.66;5092346;28;20123;-65
2023/02/07 02:21:07;;;;;;;3.03;2.67;;;;;;;-6.81;70.92;101832.41;5091572;28;20048;-65
2023/02/07 02:23:48;;;;;;;1.00;1.00;;;;;;;-6.74;71.19;101838.03;5094584;28;20044;-66
2023/02/07 02:26:41;;;;;;;0.80;0.80;;;;;;;-6.79;70.98;101836.69;5097491;28;20124;-66
2023/02/07 02:29:41;;;;;;;0.50;0.50;;;;;;;-6.84;71.39;101837.06;5095640;28;20043;-65
2023/02/07 02:32:30;;;;;;;0.75;0.75;;;;;;;-6.79;71.26;101854.94;5078596;28;20040;-66
2023/02/07 02:35:08;;;;;;;0.82;0.82;;;;;;;-6.70;71.25;101840.09;5096775;28;20048;-65
2023/02/07 02:37:46;;;;;;;0.50;0.50;;;;;;;-6.73;71.04;101845.63;5096784;28;20067;-65
2023/02/07 02:40:22;;;;;;;1.00;1.00;;;;;;;-6.72;71.16;101844.03;5096594;28;20052;-65
2023/02/07 02:42:59;;;;;;;1.63;1.52;;;;;;;-6.76;71.04;101827.91;5096533;28;20097;-65
2023/02/07 02:45:32;;;;;;;0.75;0.75;;;;;;;-6.77;70.89;101822.81;5096617;28;20113;-65
2023/02/07 02:48:02;;;;;;;0.75;0.75;;;;;;;-6.73;71.13;101824.88;5096443;28;20050;-65
2023/02/07 02:50:34;;;;;;;1.10;1.00;;;;;;;-6.77;71.08;101817.84;5095270;28;20139;-65
2023/02/07 02:53:03;;;;;;;2.55;2.35;;;;;;;-6.81;71.13;101806.72;5096384;28;20131;-65
2023/02/07 02:56:06;;;;;;;2.15;2.05;;;;;;;-6.75;71.17;101811.44;5096361;28;20090;-66
2023/02/07 02:58:49;;;;;;;1.50;1.33;;;;;;;-6.74;71.07;101823.13;5082545;28;20098;-65
2023/02/07 03:01:24;;;;;;;1.80;1.48;;;;;;;-6.72;71.31;101831.59;5095414;28;20044;-65
2023/02/07 03:04:09;;;;;;;2.58;2.33;;;;;;;-6.73;70.72;101839.75;5094897;28;20052;-66
2023/02/07 03:06:55;;;;;;;0.68;0.68;;;;;;;-6.74;70.78;101840.50;5095084;28;20086;-66
2023/02/07 03:09:35;;;;;;;0.50;0.50;;;;;;;-6.92;70.75;101823.00;5096046;28;20047;-66
2023/02/07 03:12:14;;;;;;;1.27;1.00;;;;;;;-6.86;71.08;101828.59;5094959;28;20510;-66
2023/02/07 03:14:53;;;;;;;0.50;0.50;;;;;;;-6.84;70.91;101826.28;5096243;28;20055;-65
2023/02/07 03:17:26;;;;;;;;;;;;;;;-6.84;70.96;101819.69;5096382;28;20135;-65
2023/02/07 03:20:01;;;;;;;5.40;4.40;;;;;;;-6.96;70.74;101813.47;5094722;28;19927;-65
2023/02/07 03:22:35;;;;;;;0.90;0.90;;;;;;;-6.97;70.77;101818.31;5096165;28;20126;-66
2023/02/07 03:25:06;;;;;;;0.60;0.60;;;;;;;-7.05;71.00;101817.50;5094564;28;20044;-65
2023/02/07 03:27:38;;;;;;;6.53;5.40;;;;;;;-7.08;70.92;101819.66;5094497;28;20127;-65
2023/02/07 03:30:10;;;;;;;1.10;0.70;;;;;;;-7.05;70.70;101805.09;5095687;28;20052;-65
2023/02/07 03:32:49;;;;;;;5.22;4.72;;;;;;;-7.11;71.00;101809.47;5095968;28;20044;-65
2023/02/07 03:35:22;;;;;;;2.08;1.98;;;;;;;-7.07;71.36;101821.44;5094896;28;20071;-65
2023/02/07 03:37:56;;;;;;;5.55;1.58;;;;;;;-7.11;71.19;101828.41;5096693;28;20101;-65
2023/02/07 03:40:28;;;;;;;3.97;2.55;;;;;;;-7.08;71.01;101828.75;5095472;28;20052;-64
2023/02/07 03:43:03;;;;;;;2.53;2.33;;;;;;;-7.02;70.99;101836.78;5095756;28;20052;-65
2023/02/07 03:45:32;;;;;;;1.25;1.15;;;;;;;-7.04;70.99;101846.56;5095706;28;20047;-65
2023/02/07 03:48:01;;;;;;;0.60;0.60;;;;;;;-7.14;70.67;101848.81;5095566;28;20075;-65
2023/02/07 03:50:30;;;;;;;0.50;0.50;;;;;;;-7.13;70.76;101850.59;5095534;28;20066;-65
2023/02/07 03:53:00;;;;;;;2.28;2.15;;;;;;;-7.16;70.92;101847.78;5095538;28;20076;-65
2023/02/07 03:55:29;;;;;;;0.63;0.63;;;;;;;-7.18;71.01;101851.72;5095529;28;20050;-64
2023/02/07 03:57:58;;;;;;;2.88;2.67;;;;;;;-7.13;70.98;101855.56;5095174;28;20076;-66
2023/02/07 04:00:27;;;;;;;;;;;;;;;-7.14;70.89;101853.78;5095582;28;20044;-65
2023/02/07 04:02:56;;;;;;;0.97;0.97;;;;;;;-7.18;71.14;101844.28;5094960;28;20004;-66
2023/02/07 04:05:24;;;;;;;0.70;0.70;;;;;;;-7.21;70.88;101843.94;5095226;28;20048;-65
2023/02/07 04:07:53;;;;;;;8.93;2.08;;;;;;;-7.26;71.02;101842.59;5094878;28;20052;-65
2023/02/07 04:10:23;;;;;;;3.03;2.83;;;;;;;-7.15;71.03;101839.59;5095223;28;20110;-65
2023/02/07 04:12:52;;;;;;;0.30;0.30;;;;;;;-7.09;71.15;101851.78;5094919;28;20051;-65
2023/02/07 04:15:21;;;;;;;0.75;0.75;;;;;;;-7.07;71.20;101851.22;5094812;28;20078;-64
2023/02/07 04:17:50;;;;;;;1.20;1.15;;;;;;;-7.18;71.19;101850.84;5095072;28;20498;-65
2023/02/07 04:20:19;;;;;;;0.60;0.60;;;;;;;-7.10;71.23;101863.28;5094691;28;20512;-65
2023/02/07 04:22:48;;;;;;;0.38;0.38;;;;;;;-7.11;71.34;101863.16;5095014;28;20051;-65
2023/02/07 04:25:17;;;;;;;5.00;2.72;;;;;;;-7.18;71.29;101861.63;5094537;28;20048;-65
2023/02/07 04:27:47;;;;;;;2.35;2.25;;;;;;;-7.22;71.61;101859.53;5094790;28;20040;-65
2023/02/07 04:30:17;;;;;;;1.52;1.42;;;;;;;-7.23;71.60;101857.81;5094552;28;20127;-65
2023/02/07 04:32:45;;;;;;;1.02;1.02;;;;;;;-7.20;71.56;101858.13;5094577;28;20509;-64
2023/02/07 04:35:14;;;;;;;0.50;0.50;;;;;;;-7.13;71.34;101864.59;5094333;28;20040;-65
2023/02/07 04:37:43;;;;;;;0.50;0.50;;;;;;;-7.09;71.50;101857.63;5094395;28;20065;-65
2023/02/07 04:40:12;;;;;;;3.53;3.28;;;;;;;-7.12;71.65;101852.34;5094633;28;20148;-66
2023/02/07 04:42:41;;;;;;;6.53;1.98;;;;;;;-7.16;71.41;101846.91;5094338;28;20048;-65
2023/02/07 04:45:11;;;;;;;0.40;0.40;;;;;;;-7.17;71.62;101852.56;5094516;28;20067;-65
2023/02/07 04:47:40;;;;;;;1.02;1.02;;;;;;;-7.24;71.22;101856.03;5094599;28;20482;-65
2023/02/07 04:50:09;;;;;;;3.17;2.93;;;;;;;-7.24;71.48;101856.03;5094135;28;20044;-65
2023/02/07 04:52:40;;;;;;;3.42;2.45;;;;;;;-7.26;71.39;101842.59;5094445;28;20308;-65
2023/02/07 04:55:10;;;;;;;0.40;0.40;;;;;;;-7.27;71.42;101845.78;5094109;28;20066;-65
2023/02/07 04:57:39;;;;;;;0.52;0.52;;;;;;;-7.26;71.37;101847.56;5094091;28;20044;-65
2023/02/07 05:00:09;;;;;;;1.10;1.10;;;;;;;-7.14;71.36;101847.94;5092790;28;20040;-65
2023/02/07 05:02:39;;;;;;;2.38;2.28;;;;;;;-7.13;71.20;101843.16;5092587;28;20048;-66
2023/02/07 05:05:08;;;;;;;1.10;1.08;;;;;;;-7.15;71.14;101842.09;5094509;28;20486;-65
2023/02/07 05:07:37;;;;;;;;;;;;;;;-7.14;71.27;101850.41;5094840;28;20044;-65
2023/02/07 05:10:06;;;;;;;5.60;4.37;;;;;;;-7.09;71.30;101860.09;5094355;28;20014;-65
2023/02/07 05:12:35;;;;;;;;;;;;;;;-7.10;71.24;101855.84;5094241;28;20097;-65
2023/02/07 05:15:04;;;;;;;0.50;0.50;;;;;;;-7.18;70.94;101854.19;5093849;28;20011;-65
2023/02/07 05:17:33;;;;;;;2.38;1.95;;;;;;;-7.20;71.09;101853.16;5094031;28;20048;-65
2023/02/07 05:20:04;;;;;;;0.60;0.60;;;;;;;-7.17;71.12;101858.41;5094294;28;20558;-65
2023/02/07 05:22:33;;;;;;;3.97;2.00;;;;;;;-7.13;71.01;101864.59;5092884;28;20075;-65
2023/02/07 05:25:02;;;;;;;0.50;0.50;;;;;;;-7.21;70.89;101866.28;5094057;28;20127;-65
2023/02/07 05:27:31;;;;;;;;;;;;;;;-7.26;70.91;101866.50;5093979;28;20048;-65
2023/02/07 05:29:59;;;;;;;4.30;3.97;;;;;;;-7.28;71.05;101873.81;5093607;28;19969;-65
2023/02/07 05:35:08;;;;;;;2.92;2.50;;;;;;;-7.23;71.09;101861.88;5093914;28;20635;-65
2023/02/07 05:37:37;;;;;;;2.10;2.00;;;;;;;-7.39;71.10;101864.38;5093511;28;20489;-65
2023/02/07 05:40:06;;;;;;;0.60;0.60;;;;;;;-7.52;71.23;101858.84;5093540;28;20044;-65
2023/02/07 05:42:35;;;;;;;;;;;;;;;-7.53;71.45;101854.59;5093932;28;20048;-65
2023/02/07 05:45:04;;;;;;;0.40;0.40;;;;;;;-7.46;71.75;101864.41;5093870;28;20320;-65
2023/02/07 05:47:33;;;;;;;;;;;;;;;-7.38;71.84;101856.19;5093853;28;20048;-65
2023/02/07 05:50:01;;;;;;;2.78;1.55;;;;;;;-7.43;71.64;101852.34;5093416;28;20361;-65
2023/02/07 05:52:32;;;;;;;0.50;0.50;;;;;;;-7.33;71.69;101864.13;5093526;28;20036;-65
2023/02/07 05:55:03;;;;;;;2.33;2.10;;;;;;;-7.32;71.40;101851.91;5093429;28;20050;-65
2023/02/07 05:57:32;;;;;;;3.83;2.78;;;;;;;-7.35;71.61;101861.47;5094203;28;20079;-65
2023/02/07 06:00:01;;;;;;;2.08;1.98;;;;;;;-7.41;71.64;101862.44;5097661;28;20489;-65
2023/02/07 06:02:39;;;;;;;0.82;0.82;;;;;;;-7.43;71.58;101861.38;5097254;28;20048;-66
2023/02/07 06:05:09;;;;;;;2.75;2.55;;;;;;;-7.37;71.64;101865.41;5097652;28;20482;-64
2023/02/07 06:07:40;;;;;;;0.80;0.80;;;;;;;-7.32;71.54;101866.78;5097544;28;20060;-65
2023/02/07 06:10:09;;;;;;;2.78;2.58;;;;;;;-7.33;71.27;101869.97;5097160;28;20094;-65
2023/02/07 06:12:38;;;;;;;3.40;3.17;;;;;;;-7.28;71.41;101867.94;5097454;28;20051;-66
2023/02/07 06:15:08;;;;;;;1.67;1.58;;;;;;;-7.28;71.41;101863.88;5097437;28;20131;-66
2023/02/07 06:17:37;;;;;;;3.78;3.47;;;;;;;-7.29;71.52;101862.09;5097338;28;20097;-65
2023/02/07 06:20:06;;;;;;;0.50;0.50;;;;;;;-7.25;71.43;101866.69;5097107;28;20470;-65
2023/02/07 06:22:35;;;;;;;2.85;2.55;;;;;;;-7.28;71.15;101868.84;5097217;28;20047;-65
2023/02/07 06:25:10;;;;;;;2.20;2.08;;;;;;;-7.31;71.07;101878.44;5097272;28;20059;-66
2023/02/07 06:27:40;;;;;;;4.15;2.20;;;;;;;-7.34;71.15;101883.06;5097375;28;20044;-66
2023/02/07 06:30:09;;;;;;;;;;;;;;;-7.42;71.22;101883.88;5097384;28;20048;-66
2023/02/07 06:32:38;;;;;;;;;;;;;;;-7.43;71.17;101877.16;5097617;28;19920;-66
2023/02/07 06:35:08;;;;;;;1.02;0.93;;;;;;;-7.29;71.38;101871.16;5096677;28;19920;-65
2023/02/07 06:37:37;;;;;;;0.85;0.85;;;;;;;-7.11;71.16;101869.00;5096722;28;20048;-66
2023/02/07 06:40:08;;;;;;;6.53;2.47;;;;;;;-7.00;70.86;101873.44;5095753;28;20071;-65
2023/02/07 06:42:36;;;;;;;0.30;0.30;;;;;;;-6.84;70.74;101876.78;5096960;28;20458;-66
2023/02/07 06:45:06;;;;;;;0.80;0.80;;;;;;;-6.66;70.55;101871.94;5096815;28;20048;-66
2023/02/07 06:47:34;;;;;;;1.10;1.05;;;;;;;-6.77;70.29;101878.31;5097106;28;20393;-65
2023/02/07 06:50:04;;;;;;;0.88;0.88;;;;;;;-6.88;70.12;101889.59;5096603;28;20057;-65
2023/02/07 06:52:36;;;;;;;0.80;0.80;;;;;;;-6.93;69.96;101884.88;5096590;28;20158;-65
2023/02/07 06:55:08;;;;;;;0.60;0.60;;;;;;;-6.98;70.13;101874.47;5096720;28;20093;-65
2023/02/07 06:57:37;;;;;;;0.88;0.88;;;;;;;-7.01;70.09;101876.66;5096528;28;20109;-66
2023/02/07 07:00:06;;;;;;;3.28;2.92;;;;;;;-6.81;70.28;101867.16;5096489;28;20097;-66
2023/02/07 07:02:35;;;;;;;0.45;0.45;;;;;;;-6.60;70.06;101870.97;5096300;28;20044;-66
2023/02/07 07:05:05;;;;;;;0.57;0.57;;;;;;;-6.40;69.99;101873.84;5096277;28;20055;-65
2023/02/07 07:07:33;;;;;;;;;;;;;;;-6.28;69.71;101871.72;5096512;28;20044;-65
2023/02/07 07:10:02;;;;;;;0.80;0.80;;;;;;;-6.25;69.53;101870.44;5093815;28;19919;-65
2023/02/07 07:12:32;;;;;;;2.67;1.23;;;;;;;-6.18;69.42;101869.44;5096402;28;20147;-65
2023/02/07 07:15:01;;;;;;;0.30;0.30;;;;;;;-6.14;68.63;101871.50;5096003;28;20048;-66
2023/02/07 07:17:30;;;;;;;3.20;1.92;;;;;;;-6.14;68.82;101866.50;5096353;28;20078;-65
2023/02/07 07:19:59;;;;;;;1.00;1.00;;;;;;;-6.06;68.69;101878.09;5096233;28;20509;-66
2023/02/07 07:22:27;;;;;;;0.40;0.40;;;;;;;-6.19;68.01;101876.00;5095818;28;20101;-65
2023/02/07 07:24:56;;;;;;;1.90;1.58;;;;;;;-6.12;68.02;101887.44;5095785;28;20280;-65
2023/02/07 07:27:25;;;;;;;1.75;1.65;;;;;;;-6.07;68.15;101881.34;5096038;28;20052;-65
2023/02/07 07:29:55;;;;;;;1.35;1.08;;;;;;;-5.87;68.09;101885.78;5096205;28;20135;-65
2023/02/07 07:32:24;;;;;;;12.70;2.58;;;;;;;-5.66;68.17;101868.84;5095492;28;20097;-65
2023/02/07 07:35:02;;;;;;;3.50;2.30;;;;;;;-5.77;67.23;101879.34;5095693;28;20101;-65
2023/02/07 07:37:32;;;;;;;2.00;1.90;;;;;;;-5.92;67.31;101876.97;5095819;28;20497;-65
2023/02/07 07:40:01;;;;;;;2.83;2.63;;;;;;;-5.81;67.25;101872.34;5095482;28;20468;-65
2023/02/07 07:42:34;;;;;;;1.27;1.17;;;;;;;-5.60;67.39;101864.50;5095552;28;20048;-65
2023/02/07 07:45:15;;;;;;;1.58;1.50;;;;;;;-5.45;67.00;101865.09;5095370;28;20135;-65
2023/02/07 07:47:44;;;;;;;0.50;0.50;;;;;;;-5.53;66.91;101864.34;5095944;28;20497;-66
2023/02/07 07:50:13;;;;;;;2.38;2.20;;;;;;;-5.33;66.50;101855.44;5095147;28;20051;-65
2023/02/07 07:52:42;;;;;;;0.70;0.70;;;;;;;-5.37;66.13;101858.38;5095411;28;20139;-66
2023/02/07 07:55:10;;;;;;;0.75;0.75;;;;;;;-5.26;66.24;101857.81;5093957;28;20052;-65
2023/02/07 07:57:39;;;;;;;1.13;1.13;;;;;;;-5.02;66.46;101860.16;5095008;28;20048;-66
2023/02/07 08:00:09;;;;;;;1.40;1.13;;;;;;;-4.95;66.10;101864.97;5094289;28;20127;-65
2023/02/07 08:02:42;;;;;;;0.55;0.55;;;;;;;-4.86;66.02;101863.34;5094829;28;20127;-66
2023/02/07 08:05:11;;;;;;;1.77;1.65;;;;;;;-4.91;65.63;101860.44;5094340;28;20043;-67
2023/02/07 08:07:41;;;;;;;1.40;1.30;;;;;;;-4.70;65.28;101861.56;5084483;28;20051;-65
2023/02/07 08:10:10;;;;;;;0.60;0.60;;;;;;;-4.67;65.26;101856.88;5095037;28;20085;-65
2023/02/07 08:12:39;;;;;;;2.47;2.28;;;;;;;-4.59;64.68;101847.66;5094764;28;20093;-65
2023/02/07 08:15:10;;;;;;;4.22;3.03;;;;;;;-4.60;64.78;101859.22;5094864;28;20043;-64
2023/02/07 08:17:39;;;;;;;1.10;1.08;;;;;;;-4.55;64.23;101860.53;5095004;28;20406;-65
2023/02/07 08:20:11;;;;;;;0.68;0.68;;;;;;;-4.53;64.58;101868.13;5094409;28;20048;-65
2023/02/07 08:22:40;;;;;;;0.50;0.50;;;;;;;-4.41;64.48;101857.69;5094754;28;20048;-65
2023/02/07 08:25:10;;;;;;;0.45;0.45;;;;;;;-4.31;64.32;101859.44;5094624;28;20040;-65
2023/02/07 08:27:39;;;;;;;4.35;3.70;;;;;;;-4.31;64.15;101859.44;5094658;28;20511;-65
2023/02/07 08:30:13;;;;;;;0.75;0.75;;;;;;;-4.48;63.53;101862.84;5094661;28;20040;-64
2023/02/07 08:32:42;;;;;;;0.57;0.57;;;;;;;-4.49;63.35;101858.63;5094556;28;20123;-64
2023/02/07 08:35:12;;;;;;;1.35;1.25;;;;;;;-4.41;63.82;101852.72;5094716;28;20067;-64
2023/02/07 08:37:41;;;;;;;2.05;1.85;;;;;;;-4.18;63.57;101845.78;5094361;28;20563;-65
2023/02/07 08:40:10;;;;;;;0.70;0.70;;;;;;;-3.99;63.73;101844.94;5094290;28;20063;-65
2023/02/07 08:42:39;;;;;;;;;;;;;;;-3.81;63.28;101846.59;5094671;28;20048;-65
2023/02/07 08:45:09;;;;;;;0.57;0.57;;;;;;;-3.64;62.98;101846.50;5094188;28;19920;-65
2023/02/07 08:47:38;;;;;;;1.20;1.15;;;;;;;-3.60;62.87;101843.56;5093657;28;20127;-66
2023/02/07 08:50:07;;;;;;;3.35;3.05;;;;;;;-3.76;62.06;101846.28;5093977;28;20056;-66
2023/02/07 08:52:39;;;;;;;2.45;2.25;;;;;;;-3.89;61.80;101843.44;5093391;28;20043;-66
2023/02/07 08:55:08;;;;;;;5.82;1.50;;;;;;;-3.75;61.96;101849.66;5094484;28;20040;-66
2023/02/07 08:57:37;;;;;;;0.80;0.80;;;;;;;-3.55;61.54;101847.38;5094395;28;20120;-66
2023/02/07 09:00:07;;;;;;;1.83;1.73;;;;;;;-3.50;61.34;101841.13;5094046;28;20048;-66
2023/02/07 09:02:36;;;;;;;2.35;1.85;;;;;;;-3.48;61.71;101840.53;5093782;28;20051;-66
2023/02/07 09:05:06;;;;;;;3.15;2.88;;;;;;;-3.42;61.24;101840.22;5094056;28;20056;-66
2023/02/07 09:07:34;;;;;;;0.95;0.95;;;;;;;-3.31;60.92;101833.69;5093738;28;20135;-64
2023/02/07 09:10:07;;;;;;;1.57;1.47;;;;;;;-3.45;60.83;101824.97;5085630;28;20041;-66
2023/02/07 09:12:37;;;;;;;3.60;2.85;;;;;;;-3.53;60.52;101821.78;5079678;28;20127;-67
2023/02/07 09:15:06;;;;;;;1.48;1.40;;;;;;;-3.39;60.41;101825.50;5083593;28;20097;-67
2023/02/07 09:17:36;;;;;;;0.60;0.60;;;;;;;-3.28;60.58;101822.34;5089873;28;20048;-66
2023/02/07 09:20:05;;;;;;;2.78;2.58;;;;;;;-3.26;60.62;101825.84;5093757;28;20050;-66
2023/02/07 09:23:16;;;;;;;1.58;1.48;;;;;;;-3.30;60.54;101821.31;5087370;28;20048;-68
2023/02/07 09:25:24;;;;;;;2.35;2.15;;;;;;;-3.20;59.99;101826.41;5089983;28;20161;-67
2023/02/07 09:27:54;;;;;;;0.75;0.75;;;;;;;-3.01;60.14;101828.88;5082422;28;20494;-69
2023/02/07 09:30:23;;;;;;;1.90;1.77;;;;;;;-2.79;59.79;101825.88;5085730;28;20036;-69
2023/02/07 09:32:51;;;;;;;2.78;2.60;;;;;;;-2.82;59.32;101829.72;5075856;28;20494;-66
2023/02/07 09:35:21;;;;;;;4.65;4.28;;;;;;;-2.79;59.31;101830.88;5073587;28;20040;-67
2023/02/07 09:37:52;;;;;;;1.07;1.00;;;;;;;-2.74;58.88;101824.66;5073767;28;20075;-69
2023/02/07 09:40:23;;;;;;;0.90;0.88;;;;;;;-2.81;58.67;101832.34;5073299;28;20049;-69
2023/02/07 09:42:58;;;;;;;2.67;2.47;;;;;;;-2.88;57.88;101835.06;5073338;28;20093;-70
2023/02/07 09:45:31;;;;;;;1.60;1.50;;;;;;;-2.91;58.34;101829.81;5073373;28;20053;-69
2023/02/07 09:48:05;;;;;;;1.17;1.13;;;;;;;-2.82;58.38;101835.59;5073236;28;20072;-71
2023/02/07 09:50:43;;;;;;;9.48;3.60;;;;;;;-2.74;57.40;101848.75;5073230;28;20037;-71
2023/02/07 09:53:16;;;;;;;0.82;0.82;;;;;;;-2.58;57.58;101840.94;5073238;28;20036;-70
2023/02/07 09:55:49;;;;;;;4.70;1.85;;;;;;;-2.43;56.63;101832.25;5073551;28;20048;-70
2023/02/07 09:58:27;;;;;;;1.60;1.50;;;;;;;-2.33;57.20;101832.31;5073578;28;20049;-71
2023/02/07 10:01:02;;;;;;;2.42;2.22;;;;;;;-2.21;56.74;101826.69;5073433;28;20071;-70
2023/02/07 10:03:35;;;;;;;0.80;0.80;;;;;;;-2.15;56.67;101826.34;5072979;28;20502;-70
2023/02/07 10:06:09;;;;;;;1.75;1.55;;;;;;;-1.98;56.48;101821.13;5072266;28;20060;-70
2023/02/07 10:08:50;;;;;;;1.15;1.10;;;;;;;-1.89;55.91;101811.88;5073248;28;20044;-71
2023/02/07 10:11:33;;;;;;;0.88;0.88;;;;;;;-1.97;55.42;101782.84;5073279;28;20106;-70
2023/02/07 10:14:17;;;;;;;1.15;1.08;;;;;;;-1.79;54.60;101804.38;5080730;28;20052;-71
2023/02/07 10:17:00;;;;;;;0.85;0.75;;;;;;;-1.67;54.67;101800.38;5090529;28;20528;-70
2023/02/07 10:19:41;;;;;;;1.30;1.23;;;;;;;-1.36;53.97;101798.72;5088957;28;20044;-69
2023/02/07 10:22:21;;;;;;;2.35;2.22;;;;;;;-1.18;53.49;101794.31;5080762;28;20040;-71
2023/02/07 10:25:09;;;;;;;0.57;0.57;;;;;;;-1.12;52.62;101800.66;5089959;28;20070;-71
2023/02/07 10:27:46;;;;;;;1.85;1.60;;;;;;;-1.00;51.95;101810.78;5093161;28;20052;-71
2023/02/07 10:30:20;;;;;;;0.88;0.88;;;;;;;-0.91;51.45;101806.50;5091956;28;20036;-71
2023/02/07 10:32:50;;;;;;;3.08;2.50;;;;;;;-0.88;51.35;101796.72;5091677;28;20036;-72
2023/02/07 10:35:22;;;;;;;9.35;2.50;;;;;;;-0.78;50.77;101799.19;5093189;28;20044;-71
2023/02/07 10:37:54;;;;;;;4.15;3.30;;;;;;;-0.69;50.44;101797.38;5086956;28;20040;-71
2023/02/07 10:40:29;;;;;;;2.05;1.45;;;;;;;-0.70;50.04;101793.16;5074980;28;20453;-71
2023/02/07 10:43:03;;;;;;;0.40;0.40;;;;;;;-0.75;50.28;101796.94;5072836;28;20075;-71
2023/02/07 10:45:33;;;;;;;3.20;2.90;;;;;;;-0.77;50.13;101785.91;5080054;28;20414;-71
2023/02/07 10:48:01;;;;;;;2.58;1.90;;;;;;;-0.67;49.82;101781.72;5096944;28;20048;-71
2023/02/07 10:50:31;;;;;;;0.43;0.43;;;;;;;-0.65;49.83;101780.97;5095675;28;20040;-71
2023/02/07 10:53:00;;;;;;;0.55;0.55;;;;;;;-0.33;49.83;101776.75;5093952;28;20300;-71
2023/02/07 10:55:39;;;;;;;0.55;0.55;;;;;;;-0.34;49.30;101754.97;5095851;28;20044;-71
2023/02/07 10:58:16;;;;;;;0.63;0.63;;;;;;;-0.33;48.91;101770.13;5096325;28;20044;-71
2023/02/07 11:00:53;;;;;;;1.27;1.20;;;;;;;-0.10;49.66;101770.22;5080818;28;20056;-70
2023/02/07 11:03:24;;;;;;;1.67;1.58;;;;;;;-0.06;48.88;101771.31;5075796;28;20079;-73
2023/02/07 11:05:56;;;;;;;0.60;0.60;;;;;;;-0.29;48.60;101769.59;5075969;28;20052;-70
2023/02/07 11:08:27;;;;;;;1.50;1.00;;;;;;;-0.20;48.99;101764.41;5076149;28;20076;-71
2023/02/07 11:10:57;;;;;;;0.80;0.80;;;;;;;-0.18;48.88;101762.88;5090834;28;20040;-72
2023/02/07 11:13:29;;;;;;;2.65;1.67;;;;;;;-0.24;48.78;101753.25;5096320;28;20486;-72
2023/02/07 11:16:02;;;;;;;0.38;0.38;;;;;;;-0.14;48.98;101758.19;5096295;28;20135;-71
2023/02/07 11:18:37;;;;;;;6.03;1.75;;;;;;;-0.01;49.01;101747.44;5096288;28;20466;-70
2023/02/07 11:21:20;;;;;;;1.52;1.42;;;;;;;0.14;48.57;101747.72;5088221;28;20402;-69
2023/02/07 11:23:50;;;;;;;1.25;1.15;;;;;;;0.09;48.38;101756.53;5075449;28;20406;-70
2023/02/07 11:26:20;;;;;;;0.40;0.40;;;;;;;0.18;48.26;101742.13;5075579;28;20071;-73
2023/02/07 11:28:54;;;;;;;0.73;0.73;;;;;;;0.20;48.58;101748.13;5075509;28;20098;-70
2023/02/07 11:31:30;;;;;;;1.50;1.40;;;;;;;0.46;48.41;101749.28;5075442;28;20068;-72
2023/02/07 11:34:10;;;;;;;0.38;0.38;;;;;;;0.63;47.98;101742.97;5084701;28;20106;-72
2023/02/07 11:36:39;;;;;;;0.90;0.90;;;;;;;0.57;47.34;101737.50;5090346;28;20102;-72
2023/02/07 11:39:17;;;;;;;1.17;1.13;;;;;;;0.67;47.61;101737.41;5095415;28;20048;-73
2023/02/07 11:41:55;;;;;;;1.00;1.00;;;;;;;0.72;47.10;101713.47;5095529;28;20276;-72
2023/02/07 11:44:28;;;;;;;2.20;2.00;;;;;;;0.69;46.98;101715.78;5095550;28;20387;-70
2023/02/07 11:47:03;;;;;;;1.45;1.35;;;;;;;0.65;46.68;101712.16;5094325;28;20067;-70
2023/02/07 11:49:45;;;;;;;0.45;0.45;;;;;;;0.91;46.75;101711.47;5095371;28;20047;-72
2023/02/07 11:52:14;;;;;;;0.63;0.63;;;;;;;0.78;46.88;101718.94;5095176;28;20068;-71
2023/02/07 11:54:50;;;;;;;3.28;2.83;;;;;;;0.80;46.86;101706.47;5093041;28;20098;-70